createdAt,value
2022-12-05T00:01:28.803Z,43.30
2022-12-05T00:03:57.470Z,44.23
2022-12-05T00:06:22.494Z,41.93
2022-12-05T00:08:46.459Z,41.37
2022-12-05T00:11:14.708Z,45.90
2022-12-05T00:13:40.005Z,45.30
2022-12-05T00:16:03.523Z,45.40
2022-12-05T00:18:27.112Z,45.73
2022-12-05T00:20:51.999Z,44.90
2022-12-05T00:23:16.005Z,43.70
2022-12-05T00:25:39.943Z,45.47
2022-12-05T00:28:03.507Z,46.67
2022-12-05T00:30:27.096Z,46.00
2022-12-05T00:32:50.660Z,45.57
2022-12-05T00:35:14.217Z,41.67
2022-12-05T00:37:39.190Z,44.57
2022-12-05T00:40:02.674Z,42.37
2022-12-05T00:42:26.262Z,43.13
2022-12-05T00:44:51.599Z,45.60
2022-12-05T00:47:15.193Z,46.67
2022-12-05T00:49:38.707Z,43.90
2022-12-05T00:52:02.324Z,45.00
2022-12-05T00:54:27.254Z,37.80
2022-12-05T00:56:52.568Z,47.50
2022-12-05T00:59:19.434Z,46.07
2022-12-05T01:01:45.315Z,45.90
2022-12-05T01:04:12.123Z,44.57
2022-12-05T01:06:35.784Z,45.73
2022-12-05T01:09:00.114Z,45.47
2022-12-05T01:11:27.052Z,40.13
2022-12-05T01:13:51.479Z,43.00
2022-12-05T01:16:17.167Z,47.10
2022-12-05T01:18:40.741Z,46.03
2022-12-05T01:21:06.818Z,45.23
2022-12-05T01:23:30.551Z,44.97
2022-12-05T01:25:54.851Z,46.93
2022-12-05T01:28:20.032Z,46.97
2022-12-05T01:30:46.372Z,46.43
2022-12-05T01:33:10.425Z,46.63
2022-12-05T01:35:34.318Z,47.70
2022-12-05T01:37:57.819Z,45.60
2022-12-05T01:40:21.463Z,46.73
2022-12-05T01:42:45.011Z,48.17
2022-12-05T01:45:17.761Z,46.63
2022-12-05T01:47:41.615Z,46.80
2022-12-05T01:50:07.125Z,41.43
2022-12-05T01:52:32.621Z,43.97
2022-12-05T01:55:02.543Z,47.50
2022-12-05T01:57:27.376Z,46.50
2022-12-05T01:59:57.427Z,46.77
2022-12-05T02:02:23.083Z,44.20
2022-12-05T02:04:58.927Z,47.73
2022-12-05T02:07:22.621Z,46.00
2022-12-05T02:09:46.559Z,44.77
2022-12-05T02:12:10.240Z,45.33
2022-12-05T02:14:44.813Z,47.30
2022-12-05T02:17:18.365Z,45.73
2022-12-05T02:20:12.956Z,46.77
2022-12-05T02:23:28.348Z,44.47
2022-12-05T02:26:44.867Z,42.27
2022-12-05T02:29:57.294Z,39.43
2022-12-05T02:32:35.565Z,43.90
2022-12-05T02:35:06.924Z,43.47
2022-12-05T02:37:36.255Z,45.07
2022-12-05T02:40:06.823Z,43.00
2022-12-05T02:42:35.409Z,42.97
2022-12-05T02:45:07.146Z,43.47
2022-12-05T02:47:35.689Z,39.00
2022-12-05T02:50:00.084Z,44.40
2022-12-05T02:52:26.280Z,44.17
2022-12-05T02:54:52.708Z,44.87
2022-12-05T02:57:18.188Z,45.70
2022-12-05T02:59:41.831Z,44.87
2022-12-05T03:02:07.058Z,44.73
2022-12-05T03:04:32.981Z,41.90
2022-12-05T03:07:00.922Z,43.97
2022-12-05T03:09:30.511Z,43.23
2022-12-05T03:12:01.289Z,40.37
2022-12-05T03:14:29.066Z,39.00
2022-12-05T03:16:55.092Z,41.33
2022-12-05T03:19:26.813Z,40.63
2022-12-05T03:21:55.323Z,41.13
2022-12-05T03:24:18.941Z,38.83
2022-12-05T03:26:52.689Z,39.97
2022-12-05T03:29:27.122Z,38.67
2022-12-05T03:32:01.910Z,38.50
2022-12-05T03:34:44.665Z,36.17
2022-12-05T03:37:15.842Z,33.47
2022-12-05T03:39:46.019Z,37.90
2022-12-05T03:42:14.857Z,37.20
2022-12-05T03:44:48.377Z,36.50
2022-12-05T03:47:18.921Z,34.90
2022-12-05T03:49:48.550Z,36.30
2022-12-05T03:52:17.618Z,35.90
2022-12-05T03:54:45.420Z,34.80
2022-12-05T03:57:16.565Z,35.83
2022-12-05T03:59:45.234Z,34.83
2022-12-05T04:02:14.637Z,33.17
2022-12-05T04:04:45.931Z,33.27
2022-12-05T04:07:11.579Z,31.70
2022-12-05T04:09:40.489Z,33.27
2022-12-05T04:12:08.959Z,29.90
2022-12-05T04:14:39.082Z,33.00
2022-12-05T04:17:05.665Z,32.63
2022-12-05T04:19:55.614Z,31.70
2022-12-05T04:22:21.458Z,30.10
2022-12-05T04:25:02.494Z,31.30
2022-12-05T04:27:37.763Z,26.83
2022-12-05T04:30:06.688Z,28.57
2022-12-05T04:32:38.794Z,29.93
2022-12-05T04:35:11.103Z,27.83
2022-12-05T04:37:39.121Z,28.37
2022-12-05T04:40:09.088Z,28.53
2022-12-05T04:42:35.746Z,29.53
2022-12-05T04:45:04.394Z,28.80
2022-12-05T04:47:32.848Z,28.43
2022-12-05T04:49:57.910Z,27.73
2022-12-05T04:52:22.015Z,28.57
2022-12-05T04:54:51.699Z,27.13
2022-12-05T04:57:21.039Z,27.63
2022-12-05T04:59:44.881Z,25.97
2022-12-05T05:02:12.042Z,27.20
2022-12-05T05:04:39.621Z,28.50
2022-12-05T05:07:08.489Z,26.63
2022-12-05T05:09:32.245Z,28.13
2022-12-05T05:11:57.185Z,26.67
2022-12-05T05:14:20.721Z,26.43
2022-12-05T05:16:45.000Z,26.27
2022-12-05T05:19:10.274Z,27.80
2022-12-05T05:21:36.171Z,26.83
2022-12-05T05:24:00.742Z,26.00
2022-12-05T05:26:25.561Z,25.77
2022-12-05T05:28:50.574Z,26.03
2022-12-05T05:31:15.302Z,26.00
2022-12-05T05:33:39.347Z,26.37
2022-12-05T05:36:06.123Z,24.60
2022-12-05T05:38:29.654Z,25.33
2022-12-05T05:40:53.171Z,23.50
2022-12-05T05:43:16.773Z,25.40
2022-12-05T05:45:41.678Z,26.20
2022-12-05T05:48:05.809Z,25.07
2022-12-05T05:50:29.428Z,25.07
2022-12-05T05:52:53.001Z,23.97
2022-12-05T05:55:16.529Z,23.97
2022-12-05T05:57:40.070Z,24.30
2022-12-05T06:00:05.776Z,25.67
2022-12-05T06:02:35.418Z,23.67
2022-12-05T06:04:59.049Z,23.60
2022-12-05T06:07:22.645Z,21.73
2022-12-05T06:09:46.168Z,22.83
2022-12-05T06:12:09.732Z,23.17
2022-12-05T06:14:33.439Z,22.20
2022-12-05T06:16:57.065Z,22.53
2022-12-05T06:19:22.020Z,21.60
2022-12-05T06:21:45.580Z,21.63
2022-12-05T06:24:10.303Z,20.90
2022-12-05T06:26:33.855Z,21.00
2022-12-05T06:28:57.480Z,20.33
2022-12-05T06:31:24.155Z,20.57
2022-12-05T06:33:48.062Z,21.13
2022-12-05T06:36:16.854Z,20.03
2022-12-05T06:38:42.490Z,18.67
2022-12-05T06:41:07.701Z,18.23
2022-12-05T06:43:31.405Z,18.17
2022-12-05T06:45:55.040Z,18.07
2022-12-05T06:48:18.804Z,18.30
2022-12-05T06:50:49.561Z,17.80
2022-12-05T06:53:14.501Z,18.27
2022-12-05T06:55:38.038Z,17.60
2022-12-05T06:58:01.593Z,18.50
2022-12-05T07:00:42.983Z,17.30
2022-12-05T07:03:06.660Z,17.17
2022-12-05T07:05:30.191Z,17.73
2022-12-05T07:07:53.797Z,16.97
2022-12-05T07:10:18.915Z,17.23
2022-12-05T07:12:42.503Z,17.10
2022-12-05T07:15:07.145Z,17.23
2022-12-05T07:17:30.696Z,17.20
2022-12-05T07:19:56.059Z,17.07
2022-12-05T07:22:21.583Z,17.10
2022-12-05T07:24:45.420Z,18.10
2022-12-05T07:27:10.374Z,16.17
2022-12-05T07:29:34.027Z,16.80
2022-12-05T07:31:57.678Z,17.13
2022-12-05T07:34:21.205Z,18.47
2022-12-05T07:36:44.798Z,18.27
2022-12-05T07:39:08.987Z,18.47
2022-12-05T07:41:35.781Z,17.63
2022-12-05T07:44:05.148Z,18.40
2022-12-05T07:46:30.281Z,18.57
2022-12-05T07:48:53.811Z,18.97
2022-12-05T07:51:17.622Z,18.50
2022-12-05T07:53:44.106Z,18.13
2022-12-05T07:56:09.848Z,18.73
2022-12-05T07:58:35.712Z,19.47
2022-12-05T08:01:08.841Z,17.40
2022-12-05T08:03:32.468Z,17.63
2022-12-05T08:05:55.965Z,18.30
2022-12-05T08:08:19.663Z,17.90
2022-12-05T08:10:43.269Z,19.07
2022-12-05T08:13:08.046Z,19.77
2022-12-05T08:15:31.552Z,18.60
2022-12-05T08:17:56.862Z,19.03
2022-12-05T08:20:20.512Z,18.70
2022-12-05T08:22:44.092Z,18.83
2022-12-05T08:25:09.069Z,19.47
2022-12-05T08:27:32.657Z,19.47
2022-12-05T08:29:56.605Z,18.90
2022-12-05T08:32:20.359Z,20.97
2022-12-05T08:34:45.416Z,19.87
2022-12-05T08:37:08.975Z,19.40
2022-12-05T08:39:37.986Z,19.57
2022-12-05T08:42:02.128Z,19.60
2022-12-05T08:44:25.824Z,19.07
2022-12-05T08:46:51.336Z,19.13
2022-12-05T08:49:15.354Z,18.27
2022-12-05T08:51:41.314Z,18.90
2022-12-05T08:54:06.139Z,18.60
2022-12-05T08:56:29.959Z,17.67
2022-12-05T08:58:53.464Z,17.43
2022-12-05T09:01:21.823Z,17.00
2022-12-05T09:03:48.088Z,16.80
2022-12-05T09:06:14.709Z,16.97
2022-12-05T09:08:40.190Z,17.60
2022-12-05T09:11:07.746Z,16.50
2022-12-05T09:13:31.382Z,16.70
2022-12-05T09:15:55.064Z,17.50
2022-12-05T09:18:18.613Z,17.80
2022-12-05T09:20:42.399Z,18.63
2022-12-05T09:23:05.922Z,17.33
2022-12-05T09:25:31.853Z,17.60
2022-12-05T09:27:55.393Z,17.80
2022-12-05T09:30:19.227Z,18.90
2022-12-05T09:32:42.725Z,19.20
2022-12-05T09:35:06.757Z,16.67
2022-12-05T09:37:39.245Z,16.50
2022-12-05T09:40:03.787Z,17.17
2022-12-05T09:42:45.258Z,16.77
2022-12-05T09:45:20.145Z,16.70
2022-12-05T09:47:58.117Z,16.77
2022-12-05T09:50:24.940Z,17.00
2022-12-05T09:53:08.900Z,16.53
2022-12-05T09:55:43.523Z,16.70
2022-12-05T09:58:28.253Z,17.03
2022-12-05T10:00:58.761Z,16.50
2022-12-05T10:03:30.940Z,16.57
2022-12-05T10:06:09.639Z,17.10
2022-12-05T10:08:41.182Z,18.80
2022-12-05T10:11:13.333Z,18.33
2022-12-05T10:13:50.041Z,17.27
2022-12-05T10:16:19.334Z,16.57
2022-12-05T10:18:47.976Z,18.20
2022-12-05T10:21:19.145Z,18.40
2022-12-05T10:23:58.090Z,17.60
2022-12-05T10:26:25.301Z,17.73
2022-12-05T10:29:00.347Z,24.73
2022-12-05T10:31:29.478Z,22.07
2022-12-05T10:34:04.935Z,20.37
2022-12-05T10:36:28.532Z,20.30
2022-12-05T10:38:52.105Z,21.53
2022-12-05T10:41:16.765Z,20.90
2022-12-05T10:43:44.092Z,19.07
2022-12-05T10:46:12.827Z,17.80
2022-12-05T10:48:42.807Z,18.73
2022-12-05T10:51:07.360Z,21.77
2022-12-05T10:53:40.908Z,20.20
2022-12-05T10:56:29.689Z,19.63
2022-12-05T10:58:57.623Z,19.57
2022-12-05T11:01:23.982Z,18.93
2022-12-05T11:03:47.872Z,22.33
2022-12-05T11:06:19.224Z,25.00
2022-12-05T11:09:03.904Z,20.57
2022-12-05T11:11:29.007Z,22.47
2022-12-05T11:13:58.518Z,20.97
2022-12-05T11:16:27.705Z,20.47
2022-12-05T11:18:51.318Z,24.77
2022-12-05T11:21:18.134Z,26.97
2022-12-05T11:23:42.225Z,22.13
2022-12-05T11:26:20.351Z,22.93
2022-12-05T11:28:43.970Z,22.37
2022-12-05T11:31:22.971Z,22.63
2022-12-05T11:34:04.309Z,21.83
2022-12-05T11:36:39.681Z,23.43
2022-12-05T11:39:03.421Z,22.73
2022-12-05T11:41:49.132Z,23.03
2022-12-05T11:44:42.881Z,22.27
2022-12-05T11:47:20.347Z,21.83
2022-12-05T11:50:21.762Z,23.63
2022-12-05T11:53:02.100Z,23.13
2022-12-05T11:55:30.791Z,24.60
2022-12-05T11:58:25.299Z,25.07
2022-12-05T12:01:03.028Z,24.50
2022-12-05T12:04:32.055Z,23.97
2022-12-05T12:07:15.837Z,22.23
2022-12-05T12:09:49.163Z,23.07
2022-12-05T12:12:26.635Z,23.37
2022-12-05T12:15:04.941Z,25.60
2022-12-05T12:17:38.550Z,21.77
2022-12-05T12:20:29.787Z,23.00
2022-12-05T12:23:17.279Z,22.80
2022-12-05T12:25:50.730Z,22.93
2022-12-05T12:28:30.533Z,22.97
2022-12-05T12:31:10.230Z,27.07
2022-12-05T12:33:38.360Z,26.97
2022-12-05T12:36:15.276Z,24.93
2022-12-05T12:39:01.427Z,26.00
2022-12-05T12:42:16.157Z,23.33
2022-12-05T12:45:09.670Z,22.67
2022-12-05T12:47:46.673Z,22.37
2022-12-05T12:50:19.994Z,24.40
2022-12-05T12:53:38.584Z,25.73
2022-12-05T12:56:16.427Z,23.50
2022-12-05T12:58:56.171Z,23.80
2022-12-05T13:01:32.447Z,24.00
2022-12-05T13:04:04.157Z,25.03
2022-12-05T13:06:33.482Z,28.93
2022-12-05T13:09:01.092Z,26.27
2022-12-05T13:11:27.658Z,26.93
2022-12-05T13:13:55.267Z,25.63
2022-12-05T13:16:26.685Z,25.87
2022-12-05T13:18:51.081Z,27.57
2022-12-05T13:21:15.071Z,31.20
2022-12-05T13:23:46.937Z,27.23
2022-12-05T13:26:13.039Z,28.57
2022-12-05T13:28:46.577Z,28.60
2022-12-05T13:31:14.180Z,28.20
2022-12-05T13:33:46.295Z,29.60
2022-12-05T13:36:30.606Z,28.83
2022-12-05T13:39:20.282Z,32.60
2022-12-05T13:42:04.705Z,33.63
2022-12-05T13:44:37.253Z,28.50
2022-12-05T13:47:07.262Z,30.43
2022-12-05T13:49:44.036Z,29.67
2022-12-05T13:52:11.843Z,31.13
2022-12-05T13:54:36.941Z,30.57
2022-12-05T13:57:03.192Z,28.87
2022-12-05T14:00:07.336Z,30.00
2022-12-05T14:02:54.538Z,29.30
2022-12-05T14:05:53.776Z,29.37
2022-12-05T14:08:55.203Z,31.67
2022-12-05T14:11:18.838Z,30.47
2022-12-05T14:13:45.291Z,29.20
2022-12-05T14:16:50.613Z,30.07
2022-12-05T14:19:34.495Z,29.70
2022-12-05T14:22:14.622Z,29.43
2022-12-05T14:24:46.443Z,31.10
2022-12-05T14:27:16.615Z,30.30
2022-12-05T14:29:50.439Z,31.73
2022-12-05T14:32:25.287Z,31.13
2022-12-05T14:34:59.093Z,31.90
2022-12-05T14:37:31.018Z,32.07
2022-12-05T14:39:58.358Z,31.57
2022-12-05T14:42:36.732Z,30.30
2022-12-05T14:45:04.141Z,29.30
2022-12-05T14:47:32.708Z,33.83
2022-12-05T14:50:02.430Z,34.03
2022-12-05T14:52:29.230Z,32.73
2022-12-05T14:54:56.701Z,32.80
2022-12-05T14:57:24.164Z,35.03
2022-12-05T14:59:53.656Z,34.33
2022-12-05T15:02:24.924Z,35.17
2022-12-05T15:04:57.772Z,35.87
2022-12-05T15:07:26.214Z,35.97
2022-12-05T15:09:59.378Z,35.40
2022-12-05T15:12:28.166Z,36.67
2022-12-05T15:15:03.870Z,35.70
2022-12-05T15:17:38.604Z,36.20
2022-12-05T15:20:07.706Z,35.17
2022-12-05T15:22:35.159Z,36.83
2022-12-05T15:24:58.901Z,35.50
2022-12-05T15:27:23.021Z,34.17
2022-12-05T15:29:46.939Z,36.97
2022-12-05T15:32:21.033Z,34.50
2022-12-05T15:34:49.566Z,36.80
2022-12-05T15:37:18.103Z,38.40
2022-12-05T15:40:00.171Z,37.60
2022-12-05T15:42:29.614Z,38.33
2022-12-05T15:44:53.888Z,40.50
2022-12-05T15:47:24.083Z,40.87
2022-12-05T15:49:48.074Z,39.53
2022-12-05T15:52:26.572Z,39.00
2022-12-05T15:54:50.616Z,40.33
2022-12-05T15:57:19.531Z,40.80
2022-12-05T15:59:49.099Z,38.87
2022-12-05T16:02:18.810Z,39.23
2022-12-05T16:04:48.253Z,38.43
2022-12-05T16:07:14.966Z,43.00
2022-12-05T16:09:43.325Z,39.83
2022-12-05T16:12:19.978Z,41.63
2022-12-05T16:14:59.611Z,40.20
2022-12-05T16:17:24.137Z,45.13
2022-12-05T16:19:48.401Z,43.37
2022-12-05T16:22:23.156Z,41.90
2022-12-05T16:24:56.837Z,44.03
2022-12-05T16:27:25.599Z,43.77
2022-12-05T16:29:49.116Z,44.10
2022-12-05T16:32:23.330Z,41.80
2022-12-05T16:34:47.699Z,43.43
2022-12-05T16:37:26.936Z,40.00
2022-12-05T16:39:52.026Z,40.83
2022-12-05T16:42:26.934Z,36.97
2022-12-05T16:45:03.553Z,40.17
2022-12-05T16:48:00.881Z,38.13
2022-12-05T16:50:31.526Z,39.40
2022-12-05T16:53:04.408Z,40.40
2022-12-05T16:55:33.125Z,40.43
2022-12-05T16:57:59.519Z,39.83
2022-12-05T17:00:23.916Z,38.97
2022-12-05T17:02:48.044Z,39.17
2022-12-05T17:05:15.709Z,38.50
2022-12-05T17:07:39.305Z,39.57
2022-12-05T17:10:02.843Z,38.80
2022-12-05T17:12:28.312Z,38.47
2022-12-05T17:14:51.891Z,38.73
2022-12-05T17:17:18.150Z,35.83
2022-12-05T17:19:41.776Z,38.83
2022-12-05T17:22:07.198Z,36.43
2022-12-05T17:24:30.823Z,37.50
2022-12-05T17:26:54.359Z,38.77
2022-12-05T17:29:19.604Z,38.60
2022-12-05T17:31:43.312Z,37.17
2022-12-05T17:34:17.904Z,38.67
2022-12-05T17:36:41.505Z,38.47
2022-12-05T17:39:05.185Z,37.90
2022-12-05T17:41:28.785Z,39.47
2022-12-05T17:43:52.819Z,39.63
2022-12-05T17:46:23.204Z,48.83
2022-12-05T17:48:47.190Z,51.77
2022-12-05T17:51:13.040Z,45.87
2022-12-05T17:53:36.709Z,46.07
2022-12-05T17:56:00.290Z,50.67
2022-12-05T17:58:23.935Z,46.10
2022-12-05T18:00:48.481Z,44.37
2022-12-05T18:03:16.109Z,44.60
2022-12-05T18:05:39.761Z,46.43
2022-12-05T18:08:03.429Z,41.47
2022-12-05T18:10:27.273Z,40.10
2022-12-05T18:12:51.584Z,36.50
2022-12-05T18:15:15.461Z,44.47
2022-12-05T18:17:39.212Z,41.57
2022-12-05T18:20:04.886Z,51.20
2022-12-05T18:22:29.501Z,42.70
2022-12-05T18:24:53.071Z,59.87
2022-12-05T18:27:16.673Z,41.80
2022-12-05T18:29:40.183Z,39.47
2022-12-05T18:32:03.815Z,41.27
2022-12-05T18:34:27.678Z,37.93
2022-12-05T18:36:53.045Z,35.83
2022-12-05T18:39:16.895Z,37.97
2022-12-05T18:41:40.462Z,35.23
2022-12-05T18:44:04.011Z,34.43
2022-12-05T18:46:27.679Z,35.80
2022-12-05T18:48:51.378Z,34.57
2022-12-05T18:51:17.897Z,35.70
2022-12-05T18:53:51.737Z,35.00
2022-12-05T18:56:24.367Z,39.60
2022-12-05T18:58:55.782Z,37.37
2022-12-05T19:01:21.009Z,38.40
2022-12-05T19:03:45.956Z,34.10
2022-12-05T19:06:13.883Z,33.00
2022-12-05T19:08:37.410Z,33.67
2022-12-05T19:11:07.263Z,33.30
2022-12-05T19:13:30.784Z,40.93
2022-12-05T19:16:03.854Z,38.40
2022-12-05T19:18:27.609Z,31.73
2022-12-05T19:20:52.365Z,43.47
2022-12-05T19:23:15.972Z,33.50
2022-12-05T19:25:39.605Z,36.17
2022-12-05T19:28:05.862Z,37.33
2022-12-05T19:30:29.378Z,36.60
2022-12-05T19:32:52.927Z,35.37
2022-12-05T19:35:16.724Z,32.70
2022-12-05T19:37:40.492Z,31.47
2022-12-05T19:40:04.255Z,30.30
2022-12-05T19:42:29.405Z,30.37
2022-12-05T19:44:54.284Z,31.87
2022-12-05T19:47:17.914Z,31.17
2022-12-05T19:49:41.450Z,31.73
2022-12-05T19:52:05.343Z,31.33
2022-12-05T19:54:28.983Z,30.23
2022-12-05T19:56:58.115Z,30.60
2022-12-05T19:59:22.043Z,31.67
2022-12-05T20:01:47.068Z,30.37
2022-12-05T20:04:13.304Z,32.63
2022-12-05T20:06:39.638Z,30.87
2022-12-05T20:09:03.859Z,32.90
2022-12-05T20:11:29.169Z,34.53
2022-12-05T20:13:53.886Z,30.77
2022-12-05T20:16:21.454Z,35.60
2022-12-05T20:18:46.735Z,34.47
2022-12-05T20:21:13.155Z,32.23
2022-12-05T20:23:37.247Z,31.47
2022-12-05T20:26:04.985Z,32.87
2022-12-05T20:28:28.544Z,30.03
2022-12-05T20:30:52.098Z,30.73
2022-12-05T20:33:16.208Z,30.87
2022-12-05T20:35:41.142Z,30.47
2022-12-05T20:38:05.296Z,31.33
2022-12-05T20:40:28.900Z,32.47
2022-12-05T20:42:52.429Z,32.53
2022-12-05T20:45:16.099Z,32.60
2022-12-05T20:47:39.642Z,31.27
2022-12-05T20:50:03.166Z,33.97
2022-12-05T20:52:28.144Z,31.83
2022-12-05T20:54:52.198Z,34.23
2022-12-05T20:57:15.928Z,36.77
2022-12-05T20:59:39.461Z,32.47
2022-12-05T21:02:03.130Z,34.63
2022-12-05T21:04:26.939Z,34.13
2022-12-05T21:06:50.463Z,32.30
2022-12-05T21:09:26.761Z,36.50
2022-12-05T21:11:50.349Z,34.50
2022-12-05T21:14:13.923Z,33.33
2022-12-05T21:16:37.643Z,30.23
2022-12-05T21:19:01.643Z,30.97
2022-12-05T21:21:28.377Z,32.83
2022-12-05T21:23:56.967Z,28.87
2022-12-05T21:26:23.065Z,31.13
2022-12-05T21:28:47.625Z,29.53
2022-12-05T21:31:14.211Z,26.07
2022-12-05T21:33:37.901Z,26.60
2022-12-05T21:36:01.488Z,25.97
2022-12-05T21:38:24.989Z,24.20
2022-12-05T21:40:48.576Z,25.73
2022-12-05T21:43:13.745Z,26.47
2022-12-05T21:45:43.368Z,26.17
2022-12-05T21:48:08.564Z,28.07
2022-12-05T21:50:32.165Z,24.70
2022-12-05T21:52:55.747Z,22.80
2022-12-05T21:55:19.383Z,23.80
2022-12-05T21:57:42.982Z,25.17
2022-12-05T22:00:10.575Z,22.97
2022-12-05T22:02:34.375Z,24.20
2022-12-05T22:04:57.900Z,24.10
2022-12-05T22:07:21.567Z,28.13
2022-12-05T22:09:45.048Z,26.00
2022-12-05T22:12:08.883Z,25.20
2022-12-05T22:14:32.392Z,26.30
2022-12-05T22:16:57.380Z,21.73
2022-12-05T22:19:20.884Z,24.27
2022-12-05T22:21:45.399Z,22.63
2022-12-05T22:24:10.195Z,23.47
2022-12-05T22:26:33.885Z,23.20
2022-12-05T22:28:57.988Z,25.37
2022-12-05T22:31:23.139Z,24.53
2022-12-05T22:33:49.319Z,21.77
2022-12-05T22:36:16.117Z,22.23
2022-12-05T22:38:41.584Z,22.30
2022-12-05T22:41:09.075Z,23.37
2022-12-05T22:43:34.637Z,23.80
2022-12-05T22:45:58.427Z,21.67
2022-12-05T22:48:22.811Z,22.67
2022-12-05T22:50:52.869Z,23.17
2022-12-05T22:53:16.849Z,22.30
2022-12-05T22:55:40.557Z,26.10
2022-12-05T22:58:04.084Z,24.37
2022-12-05T23:00:27.632Z,22.70
2022-12-05T23:02:51.180Z,23.33
2022-12-05T23:05:14.840Z,23.33
2022-12-05T23:07:39.769Z,17.83
2022-12-05T23:10:03.325Z,21.17
2022-12-05T23:12:26.903Z,21.37
2022-12-05T23:14:50.507Z,21.93
2022-12-05T23:17:14.053Z,22.33
2022-12-05T23:19:37.580Z,21.73
2022-12-05T23:22:01.116Z,20.27
2022-12-05T23:24:26.014Z,20.57
2022-12-05T23:26:49.574Z,21.13
2022-12-05T23:29:15.064Z,21.83
2022-12-05T23:31:38.622Z,23.03
2022-12-05T23:34:03.904Z,21.40
2022-12-05T23:36:27.710Z,24.83
2022-12-05T23:38:51.244Z,20.23
2022-12-05T23:41:19.112Z,21.77
2022-12-05T23:43:43.650Z,21.67
2022-12-05T23:46:08.692Z,24.20
2022-12-05T23:48:33.467Z,21.17
2022-12-05T23:51:02.191Z,22.30
2022-12-05T23:53:26.211Z,23.17
2022-12-05T23:55:49.731Z,22.53
2022-12-05T23:58:14.646Z,21.00
